Tiempo atmosférico en la estación meteorológica de Madrid, Madrid (667 m.)



Fecha
DESCASC
Temp. máxima en grados centígrados (hora)
DESCASC
Temp. mínima en grados centígrados (hora)
DESCASC
Temp. media en grados centígrados
DESCASC
Racha de viento máxima en m/sg (hora)
DESCASC
Velocidad máxima media en intervalos de 10 minutos(hora)
DESCASC
Precipitaciones diarias en mm
DESCASC
Precipitaciones de 00:00 a 06:00 en mm
DESCASC
Precipitaciones de 06:00 a 12:00 en mm
DESCASC
Precipitaciones de 12:00 a 18:00 en mm
DESCASC
Precipitaciones de 18:00 a 24:00 en mm
DESCASC

Gráficas

Temp. máximas Temp. mínimas Temp. medias Precipitaciones Rachas de viento máximas Velocidades máximas media en intervalos de 10 minutos

Datos horarios

Fecha y hora oficial Temperatura (ºC) Velocidad del viento (km/h) Dirección del viento Racha (km/h) Dirección de racha Precipitación (mm) Presión (hPa) Tendencia (hPa) Humedad (%)
2019-12-10 23:00:00 4.5 2 Este 6 Este 0 946.4 -0.6 82
2019-12-10 22:00:00 5.1 0 Calma 6 Oeste 0 946.6 -0.1 82
2019-12-10 21:00:00 5.2 0 Calma 4 Oeste 0 946.8 -0.8 81
2019-12-10 20:00:00 5.5 0 Calma 5 Oeste 0 947 -0.6 78
2019-12-10 19:00:00 6 3 Oeste 5 Sudoeste 0 946.7 -0.9 75
2019-12-10 18:00:00 6.9 2 Oeste 9 Sur 0 947.6 -0.7 70
2019-12-10 17:00:00 7.5 2 Sur 10 Sudoeste 0 947.6 -1.5 66
2019-12-10 16:00:00 7.3 0 Calma 10 Sudoeste 0 947.6 -2.1 63
2019-12-10 15:00:00 6.6 3 Sur 11 Sudeste 0 948.3 -2 64
2019-12-10 14:00:00 6.1 4 Sur 15 Sudeste 0 949.1 -1.5 70
2019-12-10 13:00:00 6.2 4 Sur 13 Sudeste 0 949.7 -- 71
2019-12-10 12:00:00 5.3 4 Oeste 9 Oeste 0 950.3 -0.1 75
2019-12-10 11:00:00 4.7 3 Sur 9 Sur 0 950.6 0.2 81
2019-12-10 10:00:00 -- 2 Sudeste 9 Sudeste 0 -- -- 0
2019-12-10 09:00:00 4.2 2 Sudeste 7 Sur 0 950.4 -0.1 84
2019-12-10 08:00:00 4.3 0 Calma 5 Norte 0 950.4 0.2 86
2019-12-10 07:00:00 4.2 2 Oeste 8 Noroeste 0 950.3 -0.7 86
2019-12-10 06:00:00 4.4 3 Oeste 10 Sudeste 0 950.5 -0.6 86
2019-12-10 05:00:00 4.7 4 Sudeste 9 Sudeste 0 950.2 -0.9 87
2019-12-10 04:00:00 4.6 2 Oeste 7 Sudeste 0 951 -0.4 87
2019-12-10 03:00:00 4.1 2 Sudoeste 5 Noroeste 0 951.1 -0.3 86
2019-12-10 02:00:00 5.2 2 Noroeste 5 Noroeste 0 951.1 -0.1 87
2019-12-10 01:00:00 5.1 0 Calma 6 Sudeste 0 951.4 0.2 87
2019-12-10 00:00:00 5 5 Sudeste 12 Sudeste 0 951.4 0.3 83
2019-12-09 23:00:00 5.7 4 Este 8 Este 0 951.2 0.6 79
2019-12-09 22:00:00 6.7 4 Este 9 Este 0 951.2 1.2 77
2019-12-09 21:00:00 7.1 5 Nordeste 13 Este 0 951.1 1.6 75
2019-12-09 20:00:00 7.1 7 Este 15 Este 0 950.6 1.5 74
2019-12-09 19:00:00 8.3 8 Este 14 Este 0 950 1.1 73
2019-12-09 18:00:00 9.5 4 Este 10 Sudeste 0 949.5 0.4 71
2019-12-09 17:00:00 10.3 3 Oeste 7 Oeste 0 949.1 -0.3 64
2019-12-09 16:00:00 11.2 0 Calma 13 Sudoeste 0 948.9 -0.9 61
2019-12-09 15:00:00 10.8 3 Sur 16 Sudoeste 0 949.1 -1.4 64
2019-12-09 14:00:00 9.5 8 Oeste 21 Oeste 0 949.4 -1.3 66
2019-12-09 13:00:00 7.6 4 Sudoeste 17 Sur 0 949.8 -0.8 74
2019-12-09 12:00:00 6.7 5 Sudoeste 14 Sudoeste 0 950.5 0.7 78
2019-12-09 11:00:00 6 4 Sudoeste 10 Sudoeste 0 950.7 1.3 82
2019-12-09 10:00:00 5.9 0 Calma 10 Sudoeste 0 950.6 2 86
2019-12-09 09:00:00 5.9 3 Sudoeste 6 Sudoeste 0 949.8 1.5 86
2019-12-09 08:00:00 5.9 0 Calma 6 Sudeste 0 949.4 0.9 88
2019-12-09 07:00:00 5.8 0 Calma 6 Sudeste 0 948.6 0.4 88
2019-12-09 06:00:00 6.2 0 Calma 5 Este 0 948.3 0.2 89
2019-12-09 05:00:00 6.3 0 Calma 8 Sur 0 948.5 0.6 89
2019-12-09 04:00:00 6.4 3 Sudeste 5 Sudeste 0 948.2 0.7 89
2019-12-09 03:00:00 6.4 3 Sudeste 8 Este 0 948.1 0.5 89
2019-12-09 02:00:00 6.4 0 Calma 4 Norte 0 947.9 0.2 89
2019-12-09 01:00:00 6.4 0 Calma 5 Sudoeste 0 947.5 0.7 88
2019-12-09 00:00:00 6.4 0 Calma 11 Este 0 947.6 0.8 88
2019-12-08 23:00:00 6.2 3 Este 9 Este 0 947.7 1 88
2019-12-08 22:00:00 6.5 3 Sudeste 5 Este 0 946.8 0.6 88
2019-12-08 21:00:00 6.5 0 Calma 5 Este 0 946.8 0.5 88
2019-12-08 20:00:00 6.5 0 Calma 5 Sudoeste 0 946.7 0.5 88
2019-12-08 19:00:00 6.3 0 Calma 3 Sudoeste 0 946.2 0.1 87
2019-12-08 18:00:00 6.1 0 Calma 5 Sudoeste 1.1 946.3 0.2 86
2019-12-08 17:00:00 6.1 0 Calma 4 Sudoeste 0.7 946.2 0.2 85
2019-12-08 16:00:00 6.3 0 Calma 5 Sudoeste 1.1 946.1 -0.4 83
2019-12-08 15:00:00 6.2 0 Calma 7 Sur 0.1 946.1 -1.1 79
2019-12-08 14:00:00 5.7 0 Calma 7 Sudeste 0 946 -1.3 82
2019-12-08 13:00:00 5.4 0 Calma 10 Sudeste 0 946.5 -0.5 85
2019-12-08 12:00:00 4.7 3 Sur 10 Sur 0 947.2 0.5 89
2019-12-08 11:00:00 4.6 4 Sur 10 Sur 0 947.3 0.7 90
2019-12-08 10:00:00 4.6 0 Calma 7 Sur 0 947 1.1 90
2019-12-08 09:00:00 4.8 0 Calma 5 Sudeste 0 946.7 0.9 90
2019-12-08 08:00:00 4.8 3 Sudoeste 5 Sudoeste 0 946.6 0.8 90
2019-12-08 07:00:00 4.9 3 Sur 6 Sur 0 945.9 0 89
2019-12-08 06:00:00 4.6 0 Calma 4 Sudeste 0 945.8 -0.2 88
2019-12-08 05:00:00 4.2 0 Calma 5 Este 0 945.8 -0.5 86
2019-12-08 04:00:00 4.8 0 Calma 5 Sur 0 945.9 -0.7 86
2019-12-08 03:00:00 5.3 0 Calma 6 Sudeste 0 946 -0.6 85
2019-12-08 02:00:00 5.7 0 Calma 3 Sudeste 0 946.3 -0.4 85
2019-12-08 01:00:00 6.3 2 Sudeste 4 Sudeste 0 946.6 0.3 85
2019-12-08 00:00:00 6.4 0 Calma 4 Oeste 0 946.6 0.7 84
2019-12-07 23:00:00 6.4 4 Oeste 6 Oeste 0 946.7 1.1 84
2019-12-07 22:00:00 6.8 4 Oeste 7 Oeste 0 946.3 1.1 85
2019-12-07 21:00:00 7.2 3 Sudoeste 4 Sudoeste 0 945.9 1.1 83
2019-12-07 20:00:00 8.2 2 Sudoeste 9 Sudoeste 0 945.6 1.3 79
2019-12-07 19:00:00 9.1 5 Sudoeste 9 Sudoeste 0 945.2 0.7 71
2019-12-07 18:00:00 9.7 3 Sudoeste 8 Sudoeste 0 944.8 0.8 65
2019-12-07 17:00:00 11.2 4 Sudoeste 10 Sudeste 0 944.3 -0.5 59
2019-12-07 16:00:00 11.8 4 Sudoeste 11 Sur 0 944.5 -0.8 54
2019-12-07 15:00:00 11.4 4 Sur 10 Sudoeste 0 944 -2.1 55
2019-12-07 14:00:00 10.9 2 Sur 10 Sudeste 0 944.8 -1.4 58
2019-12-07 13:00:00 9.6 2 Sudoeste 8 Sudoeste 0 945.3 -0.6 62
2019-12-07 12:00:00 8.5 3 Sudeste 11 Sudeste 0 946.1 0.7 64
2019-12-07 11:00:00 7.3 3 Este 7 Nordeste 0 946.2 1.2 69
2019-12-07 10:00:00 5.7 4 Este 8 Este 0 945.9 1.3 75
2019-12-07 09:00:00 4.2 3 Nordeste 6 Nordeste 0 945.4 0.8 82
2019-12-07 08:00:00 4.1 2 Sudeste 4 Este 0 945 0.3 82
2019-12-07 07:00:00 4.8 2 Sudeste 8 Nordeste 0 944.6 -0.2 81
2019-12-07 06:00:00 5.1 2 Sudeste 13 Nordeste 0 944.6 -0.1 76
2019-12-07 05:00:00 5.6 5 Nordeste 17 Nordeste 0 944.7 -0.1 74
2019-12-07 04:00:00 6 8 Nordeste 16 Nordeste 0 944.8 -0.1 75
2019-12-07 03:00:00 6.3 8 Nordeste 14 Nordeste 0 944.7 -0.5 79
2019-12-07 02:00:00 6.8 3 Este 5 Este 0 944.8 -0.2 78
2019-12-07 01:00:00 7.7 0 Calma 4 Sudeste 0 944.9 0.1 77
2019-12-07 00:00:00 7.6 2 Noroeste 7 Noroeste 0 945.2 0.8 78
2019-12-06 23:00:00 6.9 2 Noroeste 5 Sudoeste 0 945 0.8 78
2019-12-06 22:00:00 7.2 2 Sudoeste 4 Sudoeste 0 944.8 1.2 75
2019-12-06 21:00:00 7.5 0 Calma 7 Sur 0 944.4 1.2 74
2019-12-06 20:00:00 8.5 3 Sur 9 Sur 0 944.2 1.1 68
2019-12-06 19:00:00 9.4 5 Sur 12 Sur 0 943.6 0.5 62
2019-12-06 18:00:00 10 3 Sudeste 10 Sur 0 943.2 0 57
2019-12-06 17:00:00 11.6 3 Sudeste 10 Sudeste 0 943.1 -0.6 50
2019-12-06 16:00:00 11.9 5 Sudeste 12 Sudeste 0 943.1 -1.1 50
2019-12-06 15:00:00 12.3 5 Sudeste 14 Sudeste 0 943.2 -1.6 49
2019-12-06 14:00:00 11.4 0 Calma 11 Sur 0 943.7 -1.6 53
2019-12-06 13:00:00 10.6 0 Calma 12 Este 0 944.2 -0.6 55
2019-12-06 12:00:00 9.6 5 Este 17 Nordeste 0 944.8 0.7 60
2019-12-06 11:00:00 8.5 7 Nordeste 19 Nordeste 0 945.3 1.4 63
2019-12-06 10:00:00 8.1 6 Nordeste 17 Nordeste 0 944.8 1.3 64
2019-12-06 09:00:00 7.8 9 Este 17 Este 0 944.1 1.2 64
2019-12-06 08:00:00 8.1 8 Nordeste 22 Nordeste 0 943.9 1.1 63
2019-12-06 07:00:00 8.1 11 Nordeste 21 Nordeste 0 943.5 0.8 64
2019-12-06 06:00:00 8.1 9 Nordeste 19 Nordeste 0 942.9 0.1 64
2019-12-06 05:00:00 8.6 9 Nordeste 19 Nordeste 0 942.8 -0.1 63
2019-12-06 04:00:00 8.8 9 Nordeste 21 Nordeste 0 942.7 -0.4 63
2019-12-06 03:00:00 8.8 10 Nordeste 20 Nordeste 0 942.8 -0.6 62
2019-12-06 02:00:00 8.8 9 Nordeste 21 Nordeste 0 942.9 -0.1 61
2019-12-06 01:00:00 8.9 11 Nordeste 24 Nordeste 0 943.1 0.7 60
2019-12-06 00:00:00 9 10 Nordeste 24 Nordeste 0 943.4 1.1 60
2019-12-05 23:00:00 8.7 11 Nordeste 27 Nordeste 0 943 1.7 61
2019-12-05 22:00:00 8.8 13 Nordeste 31 Nordeste 0 942.4 1.7 60
2019-12-05 21:00:00 9.1 11 Nordeste 24 Nordeste 0 942.3 2.2 59
2019-12-05 20:00:00 9.4 11 Nordeste 28 Este 0 941.3 1.3 57
2019-12-05 19:00:00 10.3 9 Nordeste 26 Nordeste 0 940.7 1.2 56
2019-12-05 18:00:00 10.7 12 Nordeste 32 Nordeste 0 940.1 0.9 53
2019-12-05 17:00:00 11.3 14 Nordeste 35 Nordeste 0 940 0.8 52
2019-12-05 16:00:00 11.4 15 Nordeste 33 Nordeste 0 939.5 0.1 52
2019-12-05 15:00:00 11.5 19 Nordeste 37 Nordeste 0 939.2 -0.5 51
2019-12-05 14:00:00 11.1 15 Nordeste 39 Este 0 939.2 -0.3 52
2019-12-05 13:00:00 10.4 17 Nordeste 40 Nordeste 0 939.4 0.6 53
2019-12-05 12:00:00 9.5 18 Nordeste 46 Nordeste 0 939.7 1.5 56
2019-12-05 11:00:00 9.1 23 Nordeste 45 Nordeste 0 939.5 2.2 56
2019-12-05 10:00:00 8.6 21 Nordeste 42 Nordeste 0 938.8 2.3 58
2019-12-05 09:00:00 8.1 18 Nordeste 37 Nordeste 0 938.2 2.4 60
2019-12-05 08:00:00 7.9 16 Nordeste 41 Nordeste 0 937.3 2.1 60
2019-12-05 07:00:00 8.1 12 Nordeste 32 Nordeste 0 936.5 1.3 59
2019-12-05 06:00:00 8.2 14 Nordeste 30 Nordeste 0 935.8 0.9 58
2019-12-05 05:00:00 8.1 10 Nordeste 30 Nordeste 0.1 935.2 0.8 56
2019-12-05 04:00:00 8.2 12 Nordeste 26 Nordeste 0.2 935.2 1.6 59
2019-12-05 03:00:00 8.6 8 Este 24 Nordeste 0 934.9 1.6 60
2019-12-05 02:00:00 8.7 6 Nordeste 25 Nordeste 0 934.4 1.7 61
2019-12-05 01:00:00 8.9 9 Nordeste 24 Nordeste 0 933.6 1.1 60
2019-12-05 00:00:00 8.6 8 Nordeste 22 Nordeste 0 933.3 0.8 61
2019-12-04 23:00:00 8.9 7 Nordeste 18 Este 0 932.7 0.7 60
2019-12-04 22:00:00 8.8 7 Nordeste 19 Este 0 932.5 1 61
2019-12-04 21:00:00 9 6 Este 24 Nordeste 0 932.5 1.5 60
2019-12-04 20:00:00 9.7 14 Nordeste 31 Nordeste 0 932 1.1 58
2019-12-04 19:00:00 9.5 7 Nordeste 21 Nordeste 0.1 931.5 1.2 70
2019-12-04 18:00:00 9.2 10 Nordeste 24 Nordeste 0.6 931 1.3 72
2019-12-04 17:00:00 9.9 9 Nordeste 28 Este 0.4 930.9 1.1 65
2019-12-04 16:00:00 10.7 12 Nordeste 40 Nordeste 0 930.3 -0.6 58
2019-12-04 15:00:00 10.8 13 Nordeste 31 Nordeste 0 929.7 -1.8 60
2019-12-04 14:00:00 9.5 12 Nordeste 28 Norte 0.1 929.8 -2.1 66
2019-12-04 13:00:00 8.8 13 Nordeste 30 Nordeste 0.2 930.9 -1.2 70
2019-12-04 12:00:00 8.5 10 Nordeste 28 Nordeste 0 931.5 -0.6 68
2019-12-04 11:00:00 7.3 10 Nordeste 32 Nordeste 0 931.9 -0.2 73
2019-12-04 10:00:00 6.6 14 Nordeste 25 Nordeste 0.1 932.1 0.2 78
2019-12-04 09:00:00 6.1 14 Nordeste 28 Nordeste 0.6 932.1 0.1 84
2019-12-04 08:00:00 5.6 14 Nordeste 29 Nordeste 1.1 932.1 -0.6 83
2019-12-04 07:00:00 5.9 14 Nordeste 33 Norte 0.4 931.9 -1.7 78
2019-12-04 06:00:00 6.1 14 Nordeste 33 Nordeste 0.1 932 -2.2 75
2019-12-04 05:00:00 5.9 13 Nordeste 30 Nordeste 0 932.7 -1.7 74
2019-12-04 04:00:00 5.3 10 Nordeste 24 Nordeste 0 933.6 -1.6 74
2019-12-04 03:00:00 5 13 Nordeste 25 Norte 0.6 934.2 -1.6 74
2019-12-04 02:00:00 5.2 13 Nordeste 27 Nordeste 0.2 934.4 -1.6 67
2019-12-04 01:00:00 5.8 13 Nordeste 33 Nordeste 0 935.2 -0.6 59
2019-12-04 00:00:00 6.1 13 Nordeste 28 Nordeste 0 935.8 -0.1 58
2019-12-03 23:00:00 6.4 13 Nordeste 25 Nordeste 0 936 0.4 58
2019-12-03 22:00:00 6.6 14 Nordeste 25 Nordeste 0 935.8 0.5 59
2019-12-03 21:00:00 6.8 9 Nordeste 21 Nordeste 0 935.9 0.8 59
2019-12-03 20:00:00 7.1 9 Nordeste 18 Nordeste 0 935.6 0.4 60
2019-12-03 19:00:00 7.4 10 Nordeste 22 Nordeste 0 935.3 0.2 56
2019-12-03 18:00:00 8 8 Nordeste 17 Nordeste 0 935.1 0.2 56
2019-12-03 17:00:00 8.5 9 Nordeste 17 Este 0 935.2 -0.5 49
2019-12-03 16:00:00 8.5 9 Nordeste 21 Nordeste 0 935.1 -1.6 49
2019-12-03 15:00:00 8.6 12 Nordeste 23 Nordeste 0.1 934.9 -2.7 48
2019-12-03 14:00:00 8.1 8 Nordeste 23 Norte 0 935.7 -2.3 49
2019-12-03 13:00:00 7.2 10 Nordeste 29 Nordeste 0 936.7 -1.1 49
2019-12-03 12:00:00 6.3 12 Nordeste 34 Nordeste 0 937.6 -0.3 53
2019-12-03 11:00:00 4.5 17 Nordeste 38 Nordeste 0 938 0.3 56
2019-12-03 10:00:00 3.5 15 Nordeste 38 Nordeste 0 937.8 0.2 59
2019-12-03 09:00:00 2.7 19 Nordeste 40 Nordeste 0 937.9 0.2 59
2019-12-03 08:00:00 3.3 17 Nordeste 41 Nordeste 0 937.7 -0.1 56
2019-12-03 07:00:00 3.8 19 Nordeste 38 Nordeste 0 937.6 -0.5 55
2019-12-03 06:00:00 3.8 18 Nordeste 35 Nordeste 0 937.7 -0.6 59
2019-12-03 05:00:00 4.1 17 Nordeste 35 Nordeste 0 937.8 -0.9 55
2019-12-03 04:00:00 4.3 18 Nordeste 37 Nordeste 0 938.1 -0.7 55
2019-12-03 03:00:00 4.4 17 Nordeste 34 Nordeste 0 938.3 -0.6 57
2019-12-03 02:00:00 4.6 16 Nordeste 37 Este 0 938.7 -0.4 57
2019-12-03 01:00:00 5.1 16 Nordeste 38 Nordeste 0 938.8 -0.3 56
2019-12-03 00:00:00 5.5 17 Nordeste 37 Nordeste 0 938.9 -0.3 57
2019-12-02 23:00:00 6.2 15 Nordeste 42 Nordeste 0 939.1 0.5 56
2019-12-02 22:00:00 6.6 18 Nordeste 39 Nordeste 0 939.1 0.8 52
2019-12-02 21:00:00 7.1 16 Nordeste 40 Nordeste 0 939.2 1.5 52
2019-12-02 20:00:00 7.7 14 Nordeste 40 Nordeste 0 938.6 1.4 49
2019-12-02 19:00:00 8.6 20 Nordeste 39 Nordeste 0 938.3 1.6 48
2019-12-02 18:00:00 9.4 17 Nordeste 36 Nordeste 0 937.7 0.9 46
2019-12-02 17:00:00 10 13 Nordeste 36 Nordeste 0 937.2 0.2 44
2019-12-02 16:00:00 10.3 14 Nordeste 44 Nordeste 0 936.7 -0.7 43
2019-12-02 15:00:00 10.4 13 Este 37 Nordeste 0 936.8 -0.7 43
2019-12-02 14:00:00 9.9 14 Nordeste 37 Norte 0 937 -0.5 47
2019-12-02 13:00:00 9.1 18 Nordeste 38 Norte 0 937.4 0.5 50
2019-12-02 12:00:00 7.9 17 Nordeste 41 Nordeste 0 937.5 1.1 57
2019-12-02 11:00:00 6.6 18 Nordeste 43 Nordeste 0 937.5 1.7 61
2019-12-02 10:00:00 5.6 13 Nordeste 35 Nordeste 0 936.9 1.4 65
2019-12-02 09:00:00 5.6 18 Nordeste 40 Nordeste 0 936.4 1.5 64
2019-12-02 08:00:00 5.6 20 Nordeste 39 Nordeste 0 935.8 1 63
2019-12-02 07:00:00 6 15 Nordeste 38 Nordeste 0 935.5 1 62
2019-12-02 06:00:00 6.4 15 Nordeste 41 Nordeste 0 934.9 0.8 63
2019-12-02 05:00:00 6.5 17 Nordeste 35 Nordeste 0.1 934.8 0.8 66
2019-12-02 04:00:00 6.5 14 Nordeste 37 Este 0.2 934.5 1 72
2019-12-02 03:00:00 6.6 14 Nordeste 30 Nordeste 0 934.1 0.7 74
2019-12-02 02:00:00 6.7 9 Nordeste 30 Nordeste 0.1 934 0.6 80
2019-12-02 01:00:00 7 13 Nordeste 29 Nordeste 0.1 933.5 0.5 84
2019-12-02 00:00:00 7.3 10 Nordeste 23 Nordeste 1.7 933.4 0.5 87
2019-12-01 23:00:00 7.3 11 Nordeste 23 Nordeste 1.7 933.4 0.6 88
2019-12-01 22:00:00 7.3 13 Nordeste 23 Nordeste 0.6 933 0.7 88
2019-12-01 21:00:00 7.5 10 Este 26 Este 3.2 932.9 0.8 88
2019-12-01 20:00:00 7.8 6 Nordeste 16 Nordeste 6.1 932.8 1.1 88
2019-12-01 19:00:00 8.1 6 Nordeste 15 Este 5.2 932.3 0.4 87
2019-12-01 18:00:00 8 4 Este 13 Sudeste 1.9 932.1 0 86
2019-12-01 17:00:00 8.2 6 Sudeste 19 Sudeste 1.4 931.7 -1 86
2019-12-01 16:00:00 8.4 6 Sudeste 21 Sudeste 0.2 931.9 -1.4 84
2019-12-01 15:00:00 8.1 8 Sudeste 15 Sudeste 0.3 932.1 -1.7 88
2019-12-01 14:00:00 8 5 Sudeste 15 Sur 2.4 932.7 -1.6 88
2019-12-01 13:00:00 7.7 3 Este 12 Sudeste 0.4 933.3 -0.9 87
2019-12-01 12:00:00 7.4 4 Sudeste 10 Este 0 933.8 -0.1 87
2019-12-01 11:00:00 6.9 4 Sudeste 9 Este 0.4 934.3 0.2 89
2019-12-01 10:00:00 6.6 4 Este 10 Sudeste 0.7 934.2 0.2 88
2019-12-01 09:00:00 6.5 6 Este 10 Este 0.1 933.9 -0.3 87
2019-12-01 08:00:00 6.6 2 Sudoeste 8 Oeste 0 934.1 0.2 87
2019-12-01 07:00:00 6.4 3 Oeste 8 Noroeste 0 934 -0.9 87
2019-12-01 06:00:00 6.6 4 Noroeste 14 Oeste 0 934.2 -1.1 88
2019-12-01 05:00:00 6.6 0 Calma 10 Sudoeste 0 933.9 -1.8 87
2019-12-01 04:00:00 7 3 Sudoeste 8 Sudoeste 0 934.9 -1.3 88
2019-12-01 03:00:00 7.4 2 Sur 8 Sudoeste 0 935.3 -1.2 87
2019-12-01 02:00:00 7.4 4 Sudoeste 12 Sudoeste 0 935.7 -1.1 86
2019-12-01 01:00:00 7.7 5 Sudoeste 14 Sur 0 936.2 -1.1 87
2019-12-01 00:00:00 8 4 Sur 12 Sur 1.3 936.5 -0.7 86
2019-11-30 23:00:00 8.1 0 Calma 14 Sudeste 4.1 936.8 0.2 86
2019-11-30 22:00:00 8.3 5 Norte 32 Noroeste 1.9 937.3 0.5 82
2019-11-30 21:00:00 9.2 19 Noroeste 41 Noroeste 2.2 937.2 -0.1 76
2019-11-30 20:00:00 12.2 14 Sudoeste 36 Sudoeste 0 936.6 -1.2 71
2019-11-30 19:00:00 12.6 11 Sudoeste 30 Sudoeste 0 936.8 -1.3 67
2019-11-30 18:00:00 12.8 12 Sudoeste 37 Sudoeste 0 937.3 -1.1 64
2019-11-30 17:00:00 13.4 13 Sudoeste 36 Oeste 0 937.8 -1.7 62
2019-11-30 16:00:00 13.8 12 Sudoeste 34 Sudoeste 0 938.1 -2.5 63
2019-11-30 15:00:00 13.9 14 Sudoeste 40 Sudoeste 0 938.4 -2.9 61
2019-11-30 14:00:00 14.4 16 Sudoeste 35 Sudoeste 0 939.5 -2.2 61
2019-11-30 13:00:00 13.2 14 Sudoeste 35 Oeste 0 940.6 -1.2 67
2019-11-30 12:00:00 13.2 17 Sudoeste 37 Sudoeste 0 941.3 -0.3 67
2019-11-30 11:00:00 12.8 10 Sudoeste 24 Sudoeste 0 941.7 0.3 77
2019-11-30 10:00:00 12.4 11 Sudoeste 27 Sudoeste 0 941.8 0.2 80
2019-11-30 09:00:00 12.1 12 Sudoeste 23 Sudoeste 0 941.6 -0.2 83
2019-11-30 08:00:00 12.1 7 Oeste 24 Sudoeste 0 941.4 -0.7 86
2019-11-30 07:00:00 12.1 6 Sudoeste 20 Sudoeste 0 941.6 -0.8 86
2019-11-30 06:00:00 12.2 10 Sudoeste 20 Sudoeste 0 941.8 -0.5 84
2019-11-30 05:00:00 12.4 9 Sudoeste 20 Oeste 0 942.1 -0.8 83
2019-11-30 04:00:00 12.5 6 Sudoeste 15 Sudoeste 0 942.4 -0.7 83
2019-11-30 03:00:00 12.4 8 Sudoeste 15 Sudoeste 0 942.3 -1 83
2019-11-30 02:00:00 12.4 5 Sudoeste 18 Sudoeste 0 942.9 -0.2 83
2019-11-30 01:00:00 12.5 6 Sudoeste 17 Sudoeste 0 943.1 0.1 83
2019-11-30 00:00:00 12.4 5 Oeste 23 Sudoeste 0 943.3 0.5 83
2019-11-29 23:00:00 12.6 3 Sudoeste 15 Sudoeste 0 943.1 0.1 82
2019-11-29 22:00:00 12.5 7 Oeste 15 Oeste 0 943 0.5 83
2019-11-29 21:00:00 12.7 5 Sudoeste 19 Oeste 0 942.8 0.4 81
2019-11-29 20:00:00 12.9 5 Sudoeste 19 Oeste 0 943 0.9 80
2019-11-29 19:00:00 13.1 6 Sudoeste 18 Oeste 0 942.5 0.8 78
2019-11-29 18:00:00 13.5 7 Oeste 18 Oeste 0 942.4 0.6 77
2019-11-29 17:00:00 13.7 6 Sudoeste 21 Sudoeste 0 942.1 0.1 77
2019-11-29 16:00:00 14.1 5 Sudoeste 15 Sudoeste 0.1 941.7 -0.6 79
2019-11-29 15:00:00 13.7 10 Oeste 21 Oeste 0.3 941.8 -0.7 79
2019-11-29 14:00:00 14.1 7 Oeste 18 Sudoeste 0.2 942 -0.6 79
2019-11-29 13:00:00 13.6 5 Oeste 21 Oeste 0 942.3 0.2 79
2019-11-29 12:00:00 12.8 6 Oeste 21 Oeste 0.1 942.5 1.4 79
2019-11-29 11:00:00 12.4 3 Oeste 21 Oeste 0 942.6 2 80
2019-11-29 10:00:00 12.4 7 Oeste 26 Oeste 0 942.1 1.9 81
2019-11-29 09:00:00 12 8 Oeste 21 Sudoeste 0 941.1 1.3 82
2019-11-29 08:00:00 11.8 8 Sudoeste 21 Sudoeste 0 940.6 1.1 82
2019-11-29 07:00:00 11.8 7 Sudoeste 25 Oeste 0 940.2 1 82
2019-11-29 06:00:00 11.7 8 Sudoeste 25 Oeste 0 939.8 0.6 82
2019-11-29 05:00:00 11.6 10 Oeste 34 Oeste 0 939.5 0.5 81
2019-11-29 04:00:00 11.6 14 Oeste 31 Oeste 0 939.2 -0.2 81
2019-11-29 03:00:00 11.5 7 Sudoeste 24 Sudoeste 0 939.2 0.1 80
2019-11-29 02:00:00 11.2 10 Sudoeste 19 Sudoeste 0 939 -0.3 79
2019-11-29 01:00:00 11 6 Sudoeste 19 Sudoeste 0 939.4 0.3 79
2019-11-29 00:00:00 10.9 8 Sudoeste 21 Sudoeste 0 939.1 0.3 78
2019-11-28 23:00:00 11 6 Sudoeste 21 Sudoeste 0 939.3 0.7 77
2019-11-28 22:00:00 11.1 11 Sudoeste 33 Sudoeste 0 939.1 0.8 77
2019-11-28 21:00:00 11 9 Oeste 27 Sudoeste 0 938.8 0.7 77
2019-11-28 20:00:00 11.1 11 Oeste 31 Oeste 0 938.6 0.6 76
2019-11-28 19:00:00 11.4 12 Sudoeste 33 Oeste 0 938.3 0.3 75
2019-11-28 18:00:00 11.4 10 Sudoeste 28 Sudoeste 0 938.1 0.1 72
2019-11-28 17:00:00 11.4 12 Sudoeste 31 Sudoeste 0 938 -0.5 72
2019-11-28 16:00:00 11.4 10 Sudoeste 30 Sudoeste 0 938 -1 72
2019-11-28 15:00:00 11.2 13 Sudoeste 28 Sudoeste 0 938 -1.6 74
2019-11-28 14:00:00 10.9 13 Sudoeste 29 Oeste 0 938.5 -1 76
2019-11-28 13:00:00 10.5 11 Sudoeste 30 Sudoeste 0 939 -0.2 77
2019-11-28 12:00:00 10.4 10 Oeste 24 Sudoeste 0 939.6 1.1 75
2019-11-28 11:00:00 10.1 11 Sudoeste 28 Oeste 0 939.5 1.5 76
2019-11-28 10:00:00 9.5 8 Sudoeste 24 Sudoeste 0 939.2 1.7 81
2019-11-28 09:00:00 9 8 Oeste 22 Oeste 0 938.5 1.3 84
2019-11-28 08:00:00 8.2 6 Sudoeste 19 Sudoeste 0 938 0.9 84
2019-11-28 07:00:00 8.1 9 Sudoeste 27 Sudoeste 0 937.5 0.6 83
2019-11-28 06:00:00 8 8 Oeste 23 Oeste 0 937.2 0.7 82
2019-11-28 05:00:00 8 11 Oeste 31 Oeste 0 937.1 0.7 81
2019-11-28 04:00:00 8.3 10 Oeste 22 Sudoeste 0 936.9 0 81
2019-11-28 03:00:00 8.6 7 Oeste 19 Sudoeste 0 936.5 -0.2 79
2019-11-28 02:00:00 8.6 7 Oeste 19 Oeste 0 936.4 -0.1 79
2019-11-28 01:00:00 8.9 10 Oeste 28 Sudoeste 0 936.9 1.1 77
2019-11-28 00:00:00 9.2 12 Oeste 33 Oeste 0 936.7 0.9 76
2019-11-27 23:00:00 9.5 13 Oeste 31 Oeste 0 936.5 1 72
2019-11-27 22:00:00 10 12 Oeste 33 Oeste 0 935.8 0.4 71
2019-11-27 21:00:00 10.4 13 Oeste 37 Oeste 0 935.8 1 69
2019-11-27 20:00:00 10.9 12 Oeste 30 Sudoeste 0 935.5 1.1 67
2019-11-27 19:00:00 11.2 8 Oeste 31 Oeste 0 935.4 1.3 64
2019-11-27 18:00:00 11.4 10 Oeste 35 Sudoeste 0 934.8 0.5 60
2019-11-27 17:00:00 11.8 13 Sudoeste 36 Sudoeste 0 934.4 -0.2 56
2019-11-27 16:00:00 12.5 13 Oeste 33 Oeste 0 934.1 -1 52
2019-11-27 15:00:00 12.3 13 Oeste 31 Oeste 0 934.3 -1 53
2019-11-27 14:00:00 12.3 14 Sudoeste 28 Sudoeste 0 934.6 -0.6 57
2019-11-27 06:00:00 10.6 8 Oeste 30 Oeste 0 932.7 1.2 82
2019-11-27 05:00:00 11 12 Oeste 34 Oeste 0 932.2 0.5 83
2019-11-27 04:00:00 11.4 8 Oeste 32 Sudoeste 0 932 0.1 83
2019-11-27 03:00:00 11.5 14 Sudoeste 33 Oeste 0.2 931.5 -0.2 83
2019-11-27 02:00:00 11.6 16 Sudoeste 37 Oeste 0 931.7 -0.3 80
2019-11-27 01:00:00 11.4 17 Oeste 39 Sudoeste 0 931.9 -0.4 80
2019-11-27 00:00:00 11.4 15 Sudoeste 41 Oeste 0 931.7 -0.3 80
2019-11-26 23:00:00 11.4 13 Oeste 36 Sudoeste 0 932 0.1 84
2019-11-26 22:00:00 11.9 13 Oeste 38 Sudoeste 0.9 932.3 0.3 87
2019-11-26 21:00:00 12.3 10 Sudoeste 26 Sudoeste 1.1 932 -0.7 88
2019-11-26 20:00:00 12.5 8 Sudoeste 22 Sudoeste 0.5 931.9 -1 87
2019-11-26 19:00:00 12.5 8 Sudoeste 34 Sudoeste 0.1 932 -1.4 83
2019-11-26 18:00:00 12.7 10 Sudoeste 30 Sudoeste 0 932.7 -1.1 79
2019-11-26 17:00:00 13 10 Sudoeste 24 Sudoeste 0 932.9 -1.8 80
2019-11-26 16:00:00 12.7 11 Sudoeste 22 Sur 0 933.4 -2.3 83
2019-11-26 15:00:00 11.7 7 Sudoeste 17 Sur 0 933.8 -2.7 87
2019-11-26 14:00:00 11.4 6 Sur 18 Sur 0.1 934.7 -2.2 87
2019-11-26 13:00:00 11.1 6 Sur 18 Sur 0 935.7 -1.1 87
2019-11-26 12:00:00 10.8 5 Sur 17 Sur 0 936.5 -0.2 85
2019-11-26 11:00:00 11.2 9 Sudoeste 22 Sudoeste 0 936.9 0.3 83
2019-11-26 10:00:00 10.7 6 Sur 15 Sudoeste 0 936.8 0.4 82
2019-11-26 09:00:00 10.6 6 Sudoeste 13 Sudoeste 0 936.7 0.2 82
2019-11-26 08:00:00 10.5 5 Sudoeste 19 Oeste 0 936.6 -0.5 83
2019-11-26 07:00:00 10.6 3 Sudoeste 15 Sudoeste 0 936.4 -0.7 85
2019-11-26 06:00:00 10.7 3 Sudoeste 15 Sudoeste 0 936.5 -0.8 87
2019-11-26 05:00:00 10.6 5 Sudoeste 16 Oeste 0 937.1 -0.3 88
2019-11-26 04:00:00 10.6 4 Sudoeste 13 Oeste 0 937.1 -0.7 90
2019-11-26 03:00:00 10.6 3 Sudoeste 10 Sur 0 937.3 -0.5 90
2019-11-26 02:00:00 9.9 4 Sudoeste 11 Sur 0 937.4 -0.3 90
2019-11-26 01:00:00 9.7 3 Oeste 12 Oeste 0 937.8 -0.1 89
2019-11-26 00:00:00 10.5 6 Oeste 19 Oeste 0 937.8 0.1 90
2019-11-25 23:00:00 10.4 5 Oeste 13 Oeste 0 937.7 0.4 90
2019-11-25 22:00:00 11.2 5 Oeste 16 Sudoeste 0 937.9 0.5 89
2019-11-25 21:00:00 11.7 6 Oeste 21 Oeste 0 937.7 1 87
2019-11-25 20:00:00 12.2 4 Oeste 21 Oeste 0 937.3 0.5 81
2019-11-25 19:00:00 13.1 10 Oeste 28 Sudoeste 0 937.4 1.1 76
2019-11-25 18:00:00 13.5 7 Oeste 24 Sudoeste 0 936.7 0.8 75
2019-11-25 17:00:00 14.2 9 Oeste 23 Oeste 0 936.8 0.7 73
2019-11-25 16:00:00 14.9 10 Sudoeste 23 Sudoeste 0 936.3 -0.3 71
2019-11-25 15:00:00 14.9 8 Sudoeste 27 Sudoeste 0 935.9 -1 71
2019-11-25 14:00:00 14.4 9 Sudoeste 27 Sudoeste 0 936.1 -0.6 73
2019-11-25 13:00:00 12.9 6 Sur 18 Sudoeste 0 936.6 0 74
2019-11-25 12:00:00 12.1 6 Sudoeste 21 Sudoeste 0 936.9 0.4 76
2019-11-25 11:00:00 11 9 Sudoeste 18 Sudoeste 0 936.7 0.6 85
2019-11-25 10:00:00 9.9 6 Sudoeste 18 Oeste 0 936.6 0.7 92
2019-11-25 09:00:00 9.4 5 Sudoeste 15 Sudoeste 0 936.5 1.1 92
2019-11-25 08:00:00 9.2 4 Sudoeste 14 Sudoeste 0 936.1 0.4 90
2019-11-25 07:00:00 9.1 5 Oeste 19 Sudoeste 0 935.9 0.3 90
2019-11-25 06:00:00 9.1 8 Sudoeste 22 Sudoeste 0 935.4 -0.3 90
2019-11-25 05:00:00 9 10 Sudoeste 20 Sudoeste 0 935.7 -0.4 89
2019-11-25 04:00:00 8.9 8 Sudoeste 24 Sudoeste 0 935.6 -0.8 88
2019-11-25 03:00:00 9.1 9 Sudoeste 31 Sudoeste 0 935.7 -1.1 89
2019-11-25 02:00:00 8.9 11 Sudoeste 31 Sudoeste 0 936.1 -0.7 87
2019-11-25 01:00:00 8.9 10 Sudoeste 27 Sudoeste 0 936.4 0 84
2019-11-25 00:00:00 9 8 Sudoeste 30 Oeste 0 936.8 0.1 81
2019-11-24 23:00:00 8.9 11 Sudoeste 28 Oeste 0 936.8 0.1 77
2019-11-24 22:00:00 8.9 11 Sudoeste 26 Oeste 0 936.4 -0.1 66
2019-11-24 21:00:00 8.6 9 Oeste 22 Oeste 0 936.7 0.6 58
2019-11-24 20:00:00 8.5 7 Sudoeste 26 Oeste 0 936.7 0.6 53
2019-11-24 19:00:00 8.6 11 Oeste 25 Oeste 0 936.5 0.6 51
2019-11-24 18:00:00 9.1 8 Sudoeste 21 Oeste 0 936.1 0.4 51
2019-11-24 17:00:00 10.2 11 Oeste 27 Sudoeste 0 936.1 -0.1 44
2019-11-24 16:00:00 10.7 12 Sudoeste 28 Sudoeste 0 935.9 -0.8 44
2019-11-24 15:00:00 11.2 6 Oeste 22 Sudoeste 0 935.7 -1.7 40
2019-11-24 14:00:00 11.2 9 Oeste 26 Oeste 0 936.2 -1.3 40
2019-11-24 13:00:00 10 10 Oeste 29 Oeste 0 936.7 -0.2 43
2019-11-24 12:00:00 9 13 Oeste 27 Oeste 0 937.4 1.1 47
2019-11-24 11:00:00 8.2 9 Oeste 23 Oeste 0 937.5 1.5 49
2019-11-24 10:00:00 7.1 4 Oeste 27 Noroeste 0 936.9 1.7 53
2019-11-24 09:00:00 6.6 15 Noroeste 33 Noroeste 0 936.3 1.6 53
2019-11-24 08:00:00 6.5 14 Noroeste 29 Noroeste 0 936 1.9 53
2019-11-24 07:00:00 6.1 8 Oeste 28 Norte 0 935.2 1.1 56
2019-11-24 06:00:00 6.9 5 Noroeste 37 Noroeste 0 934.7 1.3 53
2019-11-24 05:00:00 7 12 Noroeste 37 Noroeste 0 934.1 0.9 54
2019-11-24 04:00:00 7 10 Noroeste 31 Oeste 0 934.1 0.5 54
2019-11-24 03:00:00 7.6 14 Oeste 35 Noroeste 0 933.4 0.2 51
2019-11-24 02:00:00 7.7 13 Oeste 36 Oeste 0 933.2 0.5 51
2019-11-24 01:00:00 7.5 6 Sudoeste 16 Sudoeste 0 933.6 1.3 54
2019-11-24 00:00:00 7.5 0 Calma 10 Sur 0 933.2 1.5 53
2019-11-23 23:00:00 7.7 0 Calma 13 Sudoeste 0 932.7 1.6 50
2019-11-23 22:00:00 7.6 3 Sudoeste 19 Sudoeste 0 932.3 2.2 47
2019-11-23 21:00:00 8 5 Sur 36 Oeste 0 931.7 2.2 46
2019-11-23 20:00:00 8 11 Oeste 25 Oeste 0 931.1 2.6 47
2019-11-23 19:00:00 9.2 11 Oeste 33 Oeste 0 930.1 2.5 42
2019-11-23 18:00:00 9.7 10 Oeste 28 Oeste 0 929.5 2.8 40
2019-11-23 17:00:00 10.3 17 Noroeste 33 Noroeste 0 928.5 2 37
2019-11-23 16:00:00 10.3 11 Noroeste 42 Oeste 0 927.6 1.3 38
2019-11-23 15:00:00 10.5 12 Oeste 30 Oeste 0 926.7 1.1 37
2019-11-23 14:00:00 11 13 Oeste 35 Oeste 0 926.5 1.8 39
2019-11-23 13:00:00 10.5 14 Oeste 48 Oeste 0 926.3 2.8 40
2019-11-23 12:00:00 9.6 17 Oeste 45 Noroeste 0 925.6 3.8 42
2019-11-23 11:00:00 8.3 15 Oeste 35 Oeste 0 924.7 4.3 47
2019-11-23 10:00:00 6.7 14 Oeste 39 Oeste 0 923.5 4.2 53
2019-11-23 09:00:00 6.3 13 Oeste 30 Oeste 0 921.8 3.6 55
2019-11-23 08:00:00 6.5 15 Oeste 58 Oeste 0 920.4 3 55
2019-11-23 07:00:00 6.2 15 Oeste 32 Oeste 0 919.3 2.4 65
2019-11-23 06:00:00 6 10 Sudoeste 42 Oeste 0.6 918.2 1.7 76
2019-11-23 05:00:00 6.5 19 Oeste 45 Oeste 0.2 917.4 1.3 69
2019-11-23 04:00:00 7 11 Oeste 34 Oeste 0 916.9 0.7 63
2019-11-23 03:00:00 7.3 8 Oeste 38 Oeste 0 916.5 0.3 74
2019-11-23 02:00:00 7.9 12 Oeste 39 Oeste 0 916.1 -0.4 88
2019-11-23 01:00:00 8 10 Oeste 32 Oeste 0 916.2 -0.3 85
2019-11-23 00:00:00 8.4 16 Oeste 41 Oeste 0 916.2 0.2 82
2019-11-22 23:00:00 8.6 13 Sudoeste 39 Oeste 0 916.5 1 83
2019-11-22 22:00:00 9 13 Sudoeste 32 Oeste 0.1 916.5 1.5 85
2019-11-22 21:00:00 9.9 9 Sudoeste 48 Sudoeste 0 916 1.2 89
2019-11-22 20:00:00 10.3 16 Sudoeste 40 Sudoeste 0 915.5 0.9 93
2019-11-22 19:00:00 10.7 13 Sudoeste 31 Sudoeste 4.6 915 0.1 95
2019-11-22 18:00:00 10.7 8 Sudoeste 27 Oeste 0 914.8 -1.2 95
2019-11-22 17:00:00 11.1 9 Sudoeste 28 Sudoeste 0.3 914.6 -2.4 95
2019-11-22 16:00:00 10.8 12 Sudoeste 33 Sur 0.3 914.9 -3.6 94
2019-11-22 15:00:00 10.2 8 Sur 28 Sur 0.9 916 -3.6 95
2019-11-22 14:00:00 9.6 14 Sur 32 Sur 1 917 -4.7 94
2019-11-22 13:00:00 9.3 15 Sur 38 Sur 0.3 918.5 -3.9 93
2019-11-22 12:00:00 9.3 14 Sur 34 Sur 0 919.6 -4.1 93
2019-11-22 11:00:00 8.8 9 Sur 28 Sur 0 921.7 -2.6 94
2019-11-22 10:00:00 8 9 Sur 25 Sur 0.6 922.4 -2.3 94
2019-11-22 09:00:00 7.3 5 Sur 18 Sur 0.8 923.7 -2.1 94
2019-11-22 08:00:00 7.3 6 Sur 18 Sudeste 0.1 924.3 -1.8 93
2019-11-22 07:00:00 7 5 Sur 16 Sur 0.4 924.7 -2.2 92
2019-11-22 06:00:00 6.7 5 Sur 14 Sur 0.2 925.8 -1.7 91
2019-11-22 05:00:00 6.6 6 Sur 13 Sur 0 926.1 -2 90
2019-11-22 04:00:00 6.7 6 Sur 15 Sur 0 926.9 -1.7 90
2019-11-22 03:00:00 6.9 6 Sur 14 Sur 0 927.5 -1.8 91
2019-11-22 02:00:00 7.1 0 Calma 12 Sur 0 928.1 -1.7 91
2019-11-22 01:00:00 7.2 0 Calma 10 Sur 0 928.6 -1.4 90
2019-11-22 00:00:00 7 0 Calma 6 Sur 0 929.3 -0.1 90
2019-11-21 23:00:00 7.2 0 Calma 8 Oeste 0 929.8 0.2 89
2019-11-21 22:00:00 7.1 3 Oeste 11 Sudoeste 0 930 0.7 89
2019-11-21 21:00:00 7 4 Sudoeste 10 Sudoeste 0 929.4 0.3 87
2019-11-21 20:00:00 7.7 6 Sudoeste 14 Sudoeste 0 929.6 0.6 88
2019-11-21 19:00:00 8 4 Oeste 9 Oeste 0 929.3 0.2 88
2019-11-21 18:00:00 7.9 4 Sudoeste 18 Sudoeste 0 929.1 -0.1 87
2019-11-21 17:00:00 8.6 4 Sudoeste 14 Oeste 0 929 -0.5 88
2019-11-21 16:00:00 8.2 6 Oeste 22 Oeste 0 929.1 -0.7 88
2019-11-21 15:00:00 8.1 7 Oeste 19 Oeste 0.1 929.2 -1.4 90
2019-11-21 14:00:00 7.7 6 Sudoeste 15 Sudoeste 0 929.5 -0.9 93
2019-11-21 13:00:00 7.3 6 Sur 13 Sur 0.4 929.8 -0.5 93
2019-11-21 12:00:00 7.1 6 Sudoeste 13 Sur 0.6 930.6 0.5 93
2019-11-21 11:00:00 6.8 3 Sudoeste 10 Sudoeste 0 930.4 0.5 93
2019-11-21 10:00:00 6.3 4 Sudoeste 10 Sudoeste 0 930.3 0.8 93
2019-11-21 09:00:00 6 3 Sur 10 Sudoeste 0 930.1 0.5 93
2019-11-21 08:00:00 6.2 0 Calma 9 Sudeste 0.4 929.9 0 93
2019-11-21 07:00:00 5.7 2 Sur 8 Sur 0.2 929.5 -0.7 93
2019-11-21 06:00:00 5.7 3 Sudoeste 8 Sudoeste 0 929.6 -0.6 92
2019-11-21 05:00:00 5.7 3 Sudoeste 8 Sudoeste 0 929.9 -0.2 92
2019-11-21 04:00:00 5.6 0 Calma 8 Sur 0 930.2 -0.3 92
2019-11-21 03:00:00 5.5 3 Sudoeste 7 Sudoeste 0 930.2 -0.4 92
2019-11-21 02:00:00 5.5 3 Sur 10 Sur 0.1 930.1 -0.5 92
2019-11-21 01:00:00 5.5 3 Sur 8 Sur 0 930.5 0 92
2019-11-21 00:00:00 5.3 0 Calma 6 Sudoeste 0 930.6 0.3 92
2019-11-20 23:00:00 5.4 2 Sudoeste 5 Sudoeste 0 930.6 0.2 92
2019-11-20 22:00:00 5.1 2 Sudoeste 7 Sudoeste 0.4 930.5 0.2 92
2019-11-20 21:00:00 5.1 4 Sudoeste 8 Oeste 0.7 930.3 0 91
2019-11-20 20:00:00 4.9 0 Calma 8 Sudoeste 0.5 930.4 -0.1 90
2019-11-20 19:00:00 5.5 3 Oeste 9 Oeste 1.4 930.3 0 89
2019-11-20 18:00:00 5.5 4 Noroeste 12 Noroeste 0.8 930.3 -0.1 87
2019-11-20 17:00:00 5.9 6 Oeste 19 Oeste 1 930.5 -0.5 84
2019-11-20 16:00:00 6.9 3 Sudoeste 10 Sudoeste 0.6 930.3 -1.8 74
2019-11-20 15:00:00 7.8 5 Sur 14 Sudoeste 0 930.4 -2.4 60
2019-11-20 14:00:00 7.5 2 Sudoeste 10 Sudeste 0 931 -2.3 59
2019-11-20 13:00:00 6.9 0 Calma 8 Este 0 932.1 -1.1 63
2019-11-20 12:00:00 5.8 3 Sudeste 9 Sudeste 0 932.8 -0.6 67
2019-11-20 11:00:00 4.8 4 Sudeste 10 Este 0 933.3 0.2 70
2019-11-20 10:00:00 4.2 5 Este 11 Este 0 933.2 0.1 73
2019-11-20 09:00:00 3.5 4 Este 6 Este 0 933.4 -0.2 76
2019-11-20 08:00:00 3.1 2 Este 5 Este 0 933.1 -0.8 78
2019-11-20 07:00:00 3.3 4 Este 6 Este 0 933.1 -0.8 77
2019-11-20 06:00:00 4 0 Calma 5 Este 0 933.6 -0.8 74
2019-11-20 05:00:00 4.3 0 Calma 5 Este 0 933.9 -0.7 76
2019-11-20 04:00:00 3.9 2 Sudeste 5 Sudeste 0 933.9 -1.2 80
2019-11-20 03:00:00 3.9 0 Calma 5 Sur 0 934.4 -1.4 79
2019-11-20 02:00:00 4.5 0 Calma 4 Sur 0 934.6 -1.6 76
2019-11-20 01:00:00 4.7 0 Calma 4 Sudoeste 0 935.1 -1.3 72
2019-11-20 00:00:00 5.2 2 Sudoeste 5 Sudoeste 0 935.8 -0.6 69
2019-11-19 23:00:00 5.5 2 Sur 8 Sur 0 936.2 -0.1 65
2019-11-19 22:00:00 6 0 Calma 9 Sur 0 936.4 0.1 63
2019-11-19 21:00:00 6.4 4 Sudoeste 9 Sudoeste 0 936.4 0.2 61
2019-11-19 20:00:00 6.4 3 Oeste 8 Oeste 0 936.3 0.1 60
2019-11-19 19:00:00 6.7 4 Oeste 9 Oeste 0 936.3 -0.2 58
2019-11-19 18:00:00 7.4 3 Sudoeste 14 Sudoeste 0 936.2 -0.7 54
2019-11-19 17:00:00 8.8 6 Sudoeste 15 Sudoeste 0 936.2 -1.3 49
2019-11-19 16:00:00 9.2 6 Sudoeste 19 Sudoeste 0 936.5 -1.6 47
2019-11-19 15:00:00 9.2 4 Oeste 21 Sudoeste 0 936.9 -2 49
2019-11-19 14:00:00 8.1 5 Sudoeste 18 Oeste 0 937.5 -2.1 52
2019-11-19 13:00:00 6.8 3 Sudoeste 12 Sudoeste 0 938.1 -1.4 56
2019-11-19 12:00:00 6 4 Sur 13 Sur 0 938.9 -0.4 59
2019-11-19 11:00:00 5.1 4 Sur 10 Sudoeste 0 939.6 0.6 65
2019-11-19 10:00:00 3.9 4 Sudeste 9 Sur 0 939.5 0.9 72
2019-11-19 09:00:00 1.2 0 Calma 2 Sudeste 0 939.3 0.8 84
2019-11-19 08:00:00 0.9 0 Calma 7 Este 0 939 0.6 83
2019-11-19 07:00:00 1.4 0 Calma 5 Este 0 938.6 -0.2 82
2019-11-19 06:00:00 1.9 3 Este 6 Este 0 938.5 -0.4 81
2019-11-19 05:00:00 1.6 0 Calma 2 Sudoeste 0 938.4 -0.6 82
2019-11-19 04:00:00 1.4 0 Calma 5 Sur 0 938.8 -0.1 81
2019-11-19 03:00:00 2.1 3 Sudeste 6 Sudoeste 0 938.9 -0.3 78
2019-11-19 02:00:00 2.7 3 Oeste 6 Oeste 0 939 -0.3 74
2019-11-19 01:00:00 3.7 3 Este 6 Este 0 938.9 0.1 70
2019-11-19 00:00:00 3.7 4 Sudeste 8 Sudeste 0 939.2 0.9 71
2019-11-18 23:00:00 4.1 3 Sudoeste 7 Sur 0 939.3 1.2 66
2019-11-18 22:00:00 4.4 0 Calma 8 Sudoeste 0 938.8 1.1 61
2019-11-18 21:00:00 6 3 Este 13 Nordeste 0 938.3 1.1 50
2019-11-18 20:00:00 6.3 3 Este 15 Norte 0 938.1 1 50
2019-11-18 19:00:00 7.2 10 Nordeste 25 Nordeste 0 937.7 1.3 46
2019-11-18 18:00:00 8 8 Nordeste 27 Nordeste 0 937.2 1.1 43
2019-11-18 17:00:00 8.9 11 Nordeste 27 Norte 0 937.1 1.2 41
2019-11-18 16:00:00 9.3 8 Nordeste 26 Este 0 936.4 0.4 39
2019-11-18 15:00:00 10.2 6 Este 24 Este 0 936.1 -0.2 40
2019-11-18 14:00:00 9.8 14 Nordeste 26 Nordeste 0 935.9 -0.1 43
2019-11-18 13:00:00 9 4 Este 14 Este 0 936 0.6 46
2019-11-18 12:00:00 8.3 3 Sudoeste 12 Sudoeste 0 936.3 1.6 47
2019-11-18 11:00:00 7.6 4 Sur 12 Sur 0 936 2.3 53
2019-11-18 10:00:00 6.2 4 Este 13 Sudeste 0 935.4 2.1 57
2019-11-18 09:00:00 4.9 0 Calma 23 Nordeste 0 934.7 1.5 62
2019-11-18 08:00:00 5.2 13 Norte 23 Norte 0 933.7 0.7 61
2019-11-18 07:00:00 2.9 8 Norte 16 Norte 0 933.3 1.1 83
2019-11-18 06:00:00 2.6 5 Norte 11 Norte 0 933.2 1.1 86
2019-11-18 05:00:00 3.4 0 Calma 8 Noroeste 0 933 1.1 82
2019-11-18 04:00:00 4.2 3 Noroeste 21 Noroeste 0 932.2 0.6 78
2019-11-18 03:00:00 4.6 9 Noroeste 18 Noroeste 0 932.1 1 77
2019-11-18 02:00:00 4.6 8 Noroeste 18 Norte 0 931.9 1.2 78
2019-11-18 01:00:00 4.8 8 Noroeste 23 Noroeste 0 931.6 0.6 78
2019-11-18 00:00:00 5.1 9 Noroeste 19 Noroeste 0 931.1 0.1 83
2019-11-17 23:00:00 5.6 11 Noroeste 22 Oeste 0 930.7 -0.7 87
2019-11-17 22:00:00 5.8 11 Oeste 26 Oeste 0 931 -0.9 90
2019-11-17 21:00:00 6.1 8 Oeste 25 Oeste 0.2 931 -0.9 90
2019-11-17 20:00:00 6.8 8 Oeste 21 Sudoeste 2.2 931.4 -0.7 91
2019-11-17 19:00:00 6.8 7 Oeste 24 Oeste 1.5 931.9 -0.7 89
2019-11-17 18:00:00 7 10 Oeste 24 Oeste 0.1 931.9 -1.3 82
2019-11-17 17:00:00 7.3 9 Sudoeste 21 Sudoeste 0 932.1 -1.7 76
2019-11-17 16:00:00 7.2 8 Sudoeste 27 Oeste 0 932.6 -2.1 76
2019-11-17 15:00:00 6.9 12 Sudoeste 27 Sudoeste 0 933.2 -2 74
2019-11-17 14:00:00 7 10 Sudoeste 26 Sudoeste 0 933.8 -2.3 69
2019-11-17 13:00:00 6.9 10 Sudoeste 23 Sudoeste 0 934.7 -1.2 65
2019-11-17 12:00:00 5.7 7 Sudoeste 16 Sudoeste 0 935.2 -0.6 65
2019-11-17 11:00:00 4.6 4 Sudoeste 13 Sudoeste 0.1 936.1 0.5 69
2019-11-17 10:00:00 4.1 4 Sudoeste 14 Sur 0 935.9 -0.2 66
2019-11-17 09:00:00 4.1 3 Oeste 17 Oeste 0 935.8 -0.2 61
2019-11-17 08:00:00 3.7 8 Sudoeste 17 Sudoeste 0 935.6 -0.6 59
2019-11-17 07:00:00 3.5 6 Sudoeste 13 Sudoeste 0 936.1 -0.5 63
2019-11-17 06:00:00 3.2 4 Sudeste 13 Oeste 0 936 -0.4 60
2019-11-17 05:00:00 3.3 4 Oeste 17 Oeste 0 936.2 -0.2 59
2019-11-17 04:00:00 3.9 8 Oeste 17 Oeste 0 936.6 -0.6 56
2019-11-17 03:00:00 4 6 Oeste 19 Oeste 0 936.4 -0.8 57
2019-11-17 02:00:00 4 6 Oeste 15 Oeste 0 936.4 -1.1 56
2019-11-17 01:00:00 4 6 Oeste 18 Oeste 0 937.2 0.1 53
2019-11-17 00:00:00 3.9 4 Oeste 18 Oeste 0 937.2 0.1 53
2019-11-16 23:00:00 4.9 6 Oeste 27 Noroeste 0 937.5 0.7 51
2019-11-16 22:00:00 5.2 9 Oeste 28 Noroeste 0 937.1 0.5 51
2019-11-16 21:00:00 5 9 Noroeste 22 Oeste 0 937.1 0.8 50
2019-11-16 20:00:00 5.7 5 Oeste 23 Oeste 0 936.8 0.6 47
2019-11-16 19:00:00 6.9 6 Noroeste 24 Noroeste 0 936.6 0.8 43
2019-11-16 18:00:00 7.7 12 Noroeste 37 Noroeste 0 936.3 1.1 40
2019-11-16 17:00:00 8.4 10 Noroeste 31 Oeste 0 936.2 0.9 39
2019-11-16 16:00:00 9 12 Noroeste 32 Noroeste 0 935.8 0.2 35
2019-11-16 15:00:00 9.8 10 Oeste 25 Oeste 0 935.2 -0.4 35
2019-11-16 14:00:00 9.5 9 Oeste 18 Oeste 0 935.3 -0.4 39
2019-11-16 13:00:00 7.7 3 Sudoeste 13 Sur 0 935.6 0.3 46
2019-11-16 12:00:00 6.6 2 Sudoeste 13 Oeste 0 935.6 1.2 49
2019-11-16 11:00:00 5.4 4 Noroeste 13 Oeste 0 935.7 1.9 53
2019-11-16 10:00:00 3.2 2 Oeste 8 Noroeste 0 935.3 2 66
2019-11-16 09:00:00 1.7 0 Calma 9 Oeste 0 934.4 2.1 73
2019-11-16 08:00:00 1.5 0 Calma 9 Oeste 0 933.8 1.9 73
2019-11-16 07:00:00 1.7 0 Calma 9 Oeste 0 933.3 2.5 70
2019-11-16 06:00:00 1.9 4 Norte 11 Norte 0 932.3 2 67
2019-11-16 05:00:00 2.7 2 Este 12 Sudeste 0 931.9 1.7 64
2019-11-16 04:00:00 3.1 3 Noroeste 11 Oeste 0 930.8 0.9 60
2019-11-16 03:00:00 3.6 3 Noroeste 14 Noroeste 0 930.3 1 59
2019-11-16 02:00:00 4 7 Noroeste 21 Norte 0 930.2 1 59
2019-11-16 01:00:00 4.4 8 Noroeste 26 Noroeste 0 929.9 1.1 56
2019-11-16 00:00:00 5.4 6 Noroeste 24 Noroeste 0 929.3 1.2 53
2019-11-15 23:00:00 5.6 6 Noroeste 30 Noroeste 0 929.2 1.5 51
2019-11-15 22:00:00 5.8 7 Oeste 25 Oeste 0 928.8 1.6 52
2019-11-15 21:00:00 6 9 Oeste 18 Oeste 0 928.1 1.3 51
2019-11-15 20:00:00 5.2 3 Oeste 15 Oeste 0 927.7 0.9 53
2019-11-15 19:00:00 5.6 3 Oeste 13 Noroeste 0 927.2 0.7 49
2019-11-15 18:00:00 6.8 5 Noroeste 23 Noroeste 0 926.8 0.6 45
2019-11-15 17:00:00 7.5 12 Noroeste 31 Oeste 0 926.8 0.6 43
2019-11-15 16:00:00 8.1 9 Noroeste 34 Sudoeste 0 926.5 0 43
2019-11-15 15:00:00 8 14 Noroeste 29 Noroeste 0 926.2 -0.7 43
2019-11-15 14:00:00 7.7 14 Noroeste 33 Noroeste 0 926.2 -0.8 46
2019-11-15 13:00:00 7.5 13 Noroeste 32 Noroeste 0 926.5 -0.2 49
2019-11-15 12:00:00 6.7 15 Noroeste 32 Oeste 0 926.9 0.5 53
2019-11-15 11:00:00 5.3 13 Noroeste 38 Oeste 0 927 1.4 56
2019-11-15 10:00:00 4.8 9 Oeste 22 Oeste 0 926.7 1.6 59
2019-11-15 09:00:00 4.2 11 Oeste 27 Oeste 0 926.4 1.7 62
2019-11-15 08:00:00 3.8 13 Oeste 34 Oeste 0 925.6 1.3 62
2019-11-15 07:00:00 4 8 Oeste 30 Oeste 0 925.1 1.1 62
2019-11-15 06:00:00 3.7 8 Oeste 27 Oeste 0 924.7 0.4 61
2019-11-15 05:00:00 3.8 7 Oeste 22 Oeste 0 924.3 0 63
2019-11-15 04:00:00 4.4 11 Oeste 27 Oeste 0 924 -0.5 60
2019-11-15 03:00:00 3.8 5 Oeste 25 Oeste 0 924.3 0 64
2019-11-15 02:00:00 4.9 12 Oeste 43 Oeste 0 924.3 0.5 58
2019-11-15 01:00:00 5.3 14 Noroeste 32 Noroeste 0 924.5 1.2 57
2019-11-15 00:00:00 5.5 4 Oeste 37 Norte 0 924.3 1.7 57
2019-11-14 23:00:00 5.8 13 Noroeste 41 Oeste 0 923.8 1.6 54
2019-11-14 22:00:00 6 13 Oeste 43 Noroeste 0 923.3 1.7 51
2019-11-14 21:00:00 6.7 9 Noroeste 40 Noroeste 0 922.6 1.2 50
2019-11-14 20:00:00 7 15 Oeste 40 Oeste 0 922.2 0.1 52
2019-11-14 19:00:00 6.5 16 Oeste 42 Oeste 0.2 921.6 1 60
2019-11-14 18:00:00 6.2 13 Oeste 28 Oeste 0.2 921.4 -0.9 65
2019-11-14 17:00:00 5.7 10 Oeste 52 Noroeste 0.1 922.1 -1.4 66
2019-11-14 16:00:00 9.3 15 Oeste 51 Oeste 0 920.6 -4 34
2019-11-14 15:00:00 9.4 19 Oeste 40 Oeste 0 922.3 -3.4 38
2019-11-14 14:00:00 8.7 16 Oeste 39 Oeste 0 923.5 -3.1 40
2019-11-14 13:00:00 8.1 16 Oeste 38 Oeste 0 924.6 -1.6 43
2019-11-14 12:00:00 7 17 Oeste 35 Oeste 0 925.7 -0.5 48
2019-11-14 11:00:00 6.5 7 Noroeste 24 Noroeste 0 926.6 0.7 57
2019-11-14 10:00:00 4.7 2 Noroeste 30 Noroeste 0 926.2 1 71
2019-11-14 09:00:00 4.8 11 Noroeste 35 Noroeste 0 926.2 0.6 78
2019-11-14 08:00:00 5.4 8 Noroeste 35 Oeste 1.8 925.9 -0.6 85
2019-11-14 07:00:00 6.4 17 Oeste 38 Sudoeste 0.3 925.2 -2.7 82
2019-11-14 06:00:00 7 13 Sudoeste 30 Oeste 0 925.6 -3.2 73
2019-11-14 05:00:00 7.6 7 Sur 18 Sudoeste 0 926.5 -3.3 78
2019-11-14 04:00:00 8 7 Sudoeste 21 Oeste 0 927.9 -1.9 78
2019-11-14 03:00:00 8.3 8 Oeste 19 Oeste 0 928.8 -1.7 78
2019-11-14 02:00:00 8.5 8 Oeste 17 Oeste 0 929.8 -1.8 79
2019-11-14 01:00:00 8.9 7 Oeste 28 Oeste 0 929.8 -2.5 77
2019-11-14 00:00:00 9.2 9 Oeste 18 Oeste 0 930.5 -2.3 75
2019-11-13 23:00:00 8.9 3 Sudoeste 12 Oeste 0 931.6 -1.7 70
2019-11-13 22:00:00 9.1 4 Oeste 13 Sudoeste 0 932.3 -1.9 66
2019-11-13 21:00:00 10.1 5 Sudoeste 10 Sudoeste 0 932.8 -1 59
2019-11-13 20:00:00 11.1 0 Calma 14 Norte 0 933.3 -0.3 50
2019-11-13 19:00:00 12.2 5 Noroeste 19 Noroeste 0 934.2 0.6 45
2019-11-13 18:00:00 12.7 5 Noroeste 19 Noroeste 0 933.8 0.4 43
2019-11-13 17:00:00 14.1 9 Noroeste 25 Noroeste 0 933.6 0.3 37
2019-11-13 16:00:00 14.8 9 Noroeste 19 Noroeste 0 933.6 0 36
2019-11-13 15:00:00 14.7 0 Calma 12 Norte 0 933.4 0 38
2019-11-13 14:00:00 14.4 6 Nordeste 17 Nordeste 0 933.3 0.6 38
2019-11-13 13:00:00 13.6 5 Nordeste 27 Nordeste 0 933.6 2.2 43
2019-11-13 12:00:00 13.1 12 Nordeste 26 Norte 0 933.4 3.4 46
2019-11-13 11:00:00 12.2 6 Nordeste 22 Nordeste 0 932.7 4.5 67
2019-11-13 10:00:00 11.4 7 Norte 18 Oeste 0 931.4 3.2 93
2019-11-13 09:00:00 10.7 4 Oeste 33 Oeste 0.1 930 1.9 93
2019-11-13 08:00:00 10.3 18 Oeste 40 Oeste 0.2 928.2 0.4 93
2019-11-13 07:00:00 10 13 Oeste 38 Sudoeste 3.2 928.2 0.4 93
2019-11-13 06:00:00 10 15 Oeste 48 Oeste 0.2 928.1 -0.7 92
2019-11-13 05:00:00 9.8 17 Oeste 44 Oeste 0 927.8 -1.7 92
2019-11-13 04:00:00 9.6 16 Oeste 49 Oeste 0.1 927.8 -2.5 92
2019-11-13 03:00:00 9.5 15 Oeste 40 Oeste 1.9 928.8 -2.3 92
2019-11-13 02:00:00 9.4 16 Oeste 39 Oeste 0.1 929.5 -3 88
2019-11-13 01:00:00 9 14 Oeste 33 Sudoeste 0 930.3 -2.8 83
2019-11-13 00:00:00 8.6 9 Sudoeste 28 Oeste 0.8 931.1 -2.5 82
2019-11-12 23:00:00 8.9 11 Sudoeste 29 Sudoeste 0.1 932.5 -1.4 73
2019-11-12 22:00:00 9.3 9 Oeste 29 Sudoeste 0 933.1 -1 67
2019-11-12 21:00:00 10.2 10 Oeste 29 Oeste 0 933.6 -0.7 57
2019-11-12 20:00:00 10.5 11 Oeste 28 Sudoeste 0 933.9 -0.7 55
2019-11-12 19:00:00 10.6 11 Sudoeste 25 Sudoeste 0 934.1 -1 50
2019-11-12 18:00:00 11.4 8 Oeste 17 Oeste 0 934.3 -1.3 41
2019-11-12 17:00:00 11.6 5 Noroeste 24 Noroeste 0 934.6 -1.6 40
2019-11-12 16:00:00 10.9 10 Noroeste 28 Oeste 0 935.1 -2.1 41
2019-11-12 15:00:00 11.4 9 Oeste 23 Oeste 0 935.6 -2 39
2019-11-12 14:00:00 11.9 3 Oeste 19 Oeste 0 936.2 -2 39
2019-11-12 13:00:00 10.8 5 Noroeste 15 Noroeste 0 937.2 -1.1 42
2019-11-12 12:00:00 9.4 0 Calma 11 Sudeste 0 937.6 -0.5 49
2019-11-12 11:00:00 8.4 2 Oeste 12 Oeste 0 938.2 1 54
2019-11-12 10:00:00 6.8 0 Calma 9 Sudoeste 0 938.3 1.1 62
2019-11-12 09:00:00 4.7 0 Calma 5 Sudoeste 0 938.1 0.6 74
2019-11-12 08:00:00 3.8 3 Sudoeste 6 Sur 0 937.2 -0.3 76
2019-11-12 07:00:00 4.4 2 Sudoeste 5 Sur 0 937.2 -1 75
2019-11-12 06:00:00 4.7 2 Sudoeste 6 Sudoeste 0 937.5 0.2 72
2019-11-12 05:00:00 5.2 0 Calma 8 Sudeste 0 937.5 -1.4 72
2019-11-12 04:00:00 5.4 2 Sudeste 6 Sudeste 0 938.2 -0.7 71
2019-11-12 03:00:00 5.3 0 Calma 4 Sudoeste 0 937.3 -1.8 70
2019-11-12 02:00:00 5.1 2 Sur 5 Sur 0 938.9 0.3 68
2019-11-12 01:00:00 6 4 Sudeste 11 Nordeste 0 938.9 0.1 63
2019-11-12 00:00:00 6.3 3 Nordeste 8 Nordeste 0 939.1 0.7 63
2019-11-11 23:00:00 7 0 Calma 17 Nordeste 0 938.6 0.2 60
2019-11-11 22:00:00 7.7 2 Este 16 Nordeste 0 938.8 0.9 60
2019-11-11 21:00:00 8.4 3 Norte 19 Norte 0 938.4 0.8 60
2019-11-11 20:00:00 9.4 9 Nordeste 20 Nordeste 0 938.4 1.3 57
2019-11-11 19:00:00 10.3 12 Nordeste 26 Nordeste 0 937.9 1.3 58
2019-11-11 18:00:00 9.9 0 Calma 6 Sudoeste 0 937.6 1.1 69
2019-11-11 17:00:00 11.2 0 Calma 11 Sur 0 937.1 0.4 62
2019-11-11 16:00:00 11.6 3 Sur 9 Sudoeste 0 936.6 -0.4 59
2019-11-11 15:00:00 11.2 3 Sudoeste 14 Oeste 0 936.5 -1.2 57
2019-11-11 14:00:00 11.3 7 Sudoeste 18 Oeste 0 936.7 -1.6 54
2019-11-11 13:00:00 10.2 5 Sudoeste 15 Oeste 0 937 -1.2 56
2019-11-11 12:00:00 9.3 10 Oeste 19 Oeste 0 937.7 -1.1 58
2019-11-11 11:00:00 8.4 3 Sudoeste 15 Oeste 0 938.3 -0.3 66
2019-11-11 10:00:00 7.1 3 Sudoeste 9 Sudoeste 0 938.2 -0.2 68
2019-11-11 09:00:00 6.5 0 Calma 6 Sur 0 938.8 0.1 70
2019-11-11 08:00:00 6.3 0 Calma 8 Sur 0 938.6 0.1 69
2019-11-11 07:00:00 5.9 0 Calma 4 Sur 0 938.4 -0.5 69
2019-11-11 06:00:00 5.9 0 Calma 11 Noroeste 0 938.7 -0.1 69
2019-11-11 05:00:00 5.9 5 Noroeste 20 Noroeste 0 938.5 -0.8 67
2019-11-11 04:00:00 5.5 8 Noroeste 20 Noroeste 0 938.9 -1.3 69
2019-11-11 03:00:00 4.7 6 Noroeste 18 Noroeste 0 938.8 -0.6 74
2019-11-11 02:00:00 3.3 3 Noroeste 7 Noroeste 0 939.3 -0.4 80
2019-11-11 01:00:00 4 2 Sudeste 6 Sur 0 940.2 0.8 78
2019-11-11 00:00:00 3.7 0 Calma 5 Sudoeste 0 939.4 0 77